Pays
Station

 

Conditions  météo  pour  Schleswig-Jagel  -  Allemagne    Allemagne

  
16 °C
    
 
 

METAR pour Schleswig-Jagel :

ETNS 251420Z 28009KT 9999 SCT032 16/08 Q1030 BLU+BLU+ TEMPO BLU

 

Voici le bulletin pour Schleswig-Jagel - Allemagne.
 
Le bulletin a été fait il y a 8 minutes, à 14:20 UTC .
Le vent soufflait à la vitesse de 4.6 mètres par seconde de Ouest (280°).
 
La température était de 16 °C, avec un point de rosée à 8 °C.
La pression atmosphérique était de 1030 hPa.
L'humidité relative était de 59.0%.
 
Il y avait 3 à 4/8ème de nébulosité à une hauteur de 975 mètres.
 
La visibilité globale était de supérieure à 10 kilomètres.
 

 
 
 

Pays :   A   B   C   D   E   F   G   H   I   J   K   L   M   N   O   P   Q   R   S   T   U   V   W   Y   Z

 

Partenaires :  Info Météo avec Met'info
Météo Marine avec MeteoMarine.net
Infos Site  |  Infos Légales  |  Crédits  |  Confidentialité
Contactez-nous  |  Ajouter aux favoris
© 2013-2020 METAR - Tous droits réservés